sensor_id;sensor_type;location;lat;lon;timestamp;pressure;altitude;pressure_sealevel;temperature;humidity
59545;BME280;45368;55.002;-1.592;2023-04-15T00:00:12;100511.18;;;8.11;58.15
59545;BME280;45368;55.002;-1.592;2023-04-15T00:02:40;100507.37;;;8.87;56.92
59545;BME280;45368;55.002;-1.592;2023-04-15T00:05:08;100511.30;;;9.30;56.17
59545;BME280;45368;55.002;-1.592;2023-04-15T00:07:36;100514.86;;;9.26;56.37
59545;BME280;45368;55.002;-1.592;2023-04-15T00:10:04;100514.47;;;9.13;56.82
59545;BME280;45368;55.002;-1.592;2023-04-15T00:12:31;100516.20;;;8.33;58.48
59545;BME280;45368;55.002;-1.592;2023-04-15T00:14:58;100523.26;;;7.79;59.94
59545;BME280;45368;55.002;-1.592;2023-04-15T00:17:25;100527.91;;;6.69;63.38
59545;BME280;45368;55.002;-1.592;2023-04-15T00:19:52;100527.17;;;6.72;63.41
59545;BME280;45368;55.002;-1.592;2023-04-15T00:22:19;100530.87;;;6.10;65.12
59545;BME280;45368;55.002;-1.592;2023-04-15T00:24:46;100530.43;;;6.57;64.69
59545;BME280;45368;55.002;-1.592;2023-04-15T00:27:13;100532.14;;;7.39;62.49
59545;BME280;45368;55.002;-1.592;2023-04-15T00:29:41;100534.17;;;7.27;62.47
59545;BME280;45368;55.002;-1.592;2023-04-15T00:32:08;100532.33;;;7.32;61.26
59545;BME280;45368;55.002;-1.592;2023-04-15T00:34:35;100534.58;;;7.96;60.23
59545;BME280;45368;55.002;-1.592;2023-04-15T00:37:02;100538.35;;;8.28;59.16
59545;BME280;45368;55.002;-1.592;2023-04-15T00:39:29;100543.26;;;8.22;59.27
59545;BME280;45368;55.002;-1.592;2023-04-15T00:41:57;100546.26;;;8.32;58.83
59545;BME280;45368;55.002;-1.592;2023-04-15T00:44:24;100548.21;;;8.13;59.21
59545;BME280;45368;55.002;-1.592;2023-04-15T00:46:51;100553.37;;;7.22;61.76
59545;BME280;45368;55.002;-1.592;2023-04-15T00:49:18;100559.44;;;6.12;64.30
59545;BME280;45368;55.002;-1.592;2023-04-15T00:51:45;100558.24;;;6.39;64.17
59545;BME280;45368;55.002;-1.592;2023-04-15T00:54:12;100566.62;;;6.04;64.46
59545;BME280;45368;55.002;-1.592;2023-04-15T00:56:39;100567.23;;;6.43;63.98
59545;BME280;45368;55.002;-1.592;2023-04-15T00:59:08;100573.60;;;6.18;65.14
59545;BME280;45368;55.002;-1.592;2023-04-15T01:01:36;100580.19;;;6.06;65.67
59545;BME280;45368;55.002;-1.592;2023-04-15T01:04:03;100586.24;;;6.57;64.35
59545;BME280;45368;55.002;-1.592;2023-04-15T01:06:31;100589.75;;;6.07;64.98
59545;BME280;45368;55.002;-1.592;2023-04-15T01:08:59;100592.88;;;5.84;64.37
59545;BME280;45368;55.002;-1.592;2023-04-15T01:11:27;100592.58;;;6.41;63.63
59545;BME280;45368;55.002;-1.592;2023-04-15T01:13:57;100592.30;;;6.36;63.76
59545;BME280;45368;55.002;-1.592;2023-04-15T01:16:25;100592.43;;;6.31;64.02
59545;BME280;45368;55.002;-1.592;2023-04-15T01:18:52;100593.70;;;6.15;64.07
59545;BME280;45368;55.002;-1.592;2023-04-15T01:21:20;100589.42;;;6.93;61.82
59545;BME280;45368;55.002;-1.592;2023-04-15T01:23:48;100587.44;;;6.55;62.78
59545;BME280;45368;55.002;-1.592;2023-04-15T01:26:16;100586.37;;;7.43;61.33
59545;BME280;45368;55.002;-1.592;2023-04-15T01:28:44;100586.18;;;7.42;60.53
59545;BME280;45368;55.002;-1.592;2023-04-15T01:31:13;100588.07;;;7.53;60.37
59545;BME280;45368;55.002;-1.592;2023-04-15T01:33:41;100588.08;;;7.59;59.21
59545;BME280;45368;55.002;-1.592;2023-04-15T01:36:09;100590.44;;;7.06;60.50
59545;BME280;45368;55.002;-1.592;2023-04-15T01:38:36;100596.97;;;6.26;62.48
59545;BME280;45368;55.002;-1.592;2023-04-15T01:41:04;100597.40;;;6.78;62.58
59545;BME280;45368;55.002;-1.592;2023-04-15T01:43:32;100601.27;;;6.97;61.69
59545;BME280;45368;55.002;-1.592;2023-04-15T01:45:58;100600.19;;;7.30;60.38
59545;BME280;45368;55.002;-1.592;2023-04-15T01:48:26;100602.41;;;7.47;60.38
59545;BME280;45368;55.002;-1.592;2023-04-15T01:50:54;100605.11;;;8.10;59.12
59545;BME280;45368;55.002;-1.592;2023-04-15T01:53:22;100607.52;;;7.69;59.85
59545;BME280;45368;55.002;-1.592;2023-04-15T01:55:50;100610.27;;;6.35;62.74
59545;BME280;45368;55.002;-1.592;2023-04-15T01:58:17;100615.36;;;6.51;63.18
59545;BME280;45368;55.002;-1.592;2023-04-15T02:00:45;100616.13;;;6.58;62.23
59545;BME280;45368;55.002;-1.592;2023-04-15T02:03:12;100617.70;;;7.25;61.63
59545;BME280;45368;55.002;-1.592;2023-04-15T02:05:40;100618.89;;;7.50;60.50
59545;BME280;45368;55.002;-1.592;2023-04-15T02:08:06;100616.17;;;8.12;58.88
59545;BME280;45368;55.002;-1.592;2023-04-15T02:10:33;100619.91;;;8.37;57.75
59545;BME280;45368;55.002;-1.592;2023-04-15T02:13:00;100631.19;;;9.08;56.90
59545;BME280;45368;55.002;-1.592;2023-04-15T02:15:28;100635.64;;;8.99;56.56
59545;BME280;45368;55.002;-1.592;2023-04-15T02:17:55;100637.45;;;9.28;56.05
59545;BME280;45368;55.002;-1.592;2023-04-15T02:20:23;100643.13;;;9.11;56.23
59545;BME280;45368;55.002;-1.592;2023-04-15T02:22:50;100647.65;;;8.63;56.73
59545;BME280;45368;55.002;-1.592;2023-04-15T02:25:18;100643.53;;;9.02;56.06
59545;BME280;45368;55.002;-1.592;2023-04-15T02:27:46;100646.24;;;9.94;55.25
59545;BME280;45368;55.002;-1.592;2023-04-15T02:30:14;100645.06;;;10.17;54.72
59545;BME280;45368;55.002;-1.592;2023-04-15T02:32:41;100650.33;;;9.27;55.10
59545;BME280;45368;55.002;-1.592;2023-04-15T02:35:08;100653.22;;;8.83;56.64
59545;BME280;45368;55.002;-1.592;2023-04-15T02:37:37;100656.23;;;9.76;54.93
59545;BME280;45368;55.002;-1.592;2023-04-15T02:40:05;100658.43;;;9.61;54.71
59545;BME280;45368;55.002;-1.592;2023-04-15T02:42:33;100652.72;;;9.86;54.23
59545;BME280;45368;55.002;-1.592;2023-04-15T02:45:00;100660.03;;;9.08;55.20
59545;BME280;45368;55.002;-1.592;2023-04-15T02:47:28;100660.48;;;9.64;54.68
59545;BME280;45368;55.002;-1.592;2023-04-15T02:49:55;100664.19;;;9.67;54.94
59545;BME280;45368;55.002;-1.592;2023-04-15T02:52:22;100663.19;;;10.58;53.85
59545;BME280;45368;55.002;-1.592;2023-04-15T02:54:49;100667.12;;;9.38;55.09
59545;BME280;45368;55.002;-1.592;2023-04-15T02:57:15;100669.41;;;9.19;55.53
59545;BME280;45368;55.002;-1.592;2023-04-15T02:59:42;100671.88;;;9.45;55.75
59545;BME280;45368;55.002;-1.592;2023-04-15T03:02:10;100681.79;;;9.32;56.01
59545;BME280;45368;55.002;-1.592;2023-04-15T03:04:37;100692.65;;;8.53;58.22
59545;BME280;45368;55.002;-1.592;2023-04-15T03:07:04;100695.12;;;9.22;56.68
59545;BME280;45368;55.002;-1.592;2023-04-15T03:09:32;100696.54;;;9.13;56.64
59545;BME280;45368;55.002;-1.592;2023-04-15T03:11:58;100701.68;;;7.99;58.40
59545;BME280;45368;55.002;-1.592;2023-04-15T03:14:25;100705.16;;;8.90;57.75
59545;BME280;45368;55.002;-1.592;2023-04-15T03:16:52;100706.98;;;7.85;58.89
59545;BME280;45368;55.002;-1.592;2023-04-15T03:19:20;100711.49;;;9.07;56.94
59545;BME280;45368;55.002;-1.592;2023-04-15T03:21:47;100707.04;;;9.61;55.97
59545;BME280;45368;55.002;-1.592;2023-04-15T03:24:14;100717.52;;;9.13;56.76
59545;BME280;45368;55.002;-1.592;2023-04-15T03:26:41;100722.05;;;8.86;57.28
59545;BME280;45368;55.002;-1.592;2023-04-15T03:29:08;100722.89;;;7.93;60.05
59545;BME280;45368;55.002;-1.592;2023-04-15T03:31:35;100732.75;;;6.33;63.11
59545;BME280;45368;55.002;-1.592;2023-04-15T03:34:02;100728.94;;;7.98;60.27
59545;BME280;45368;55.002;-1.592;2023-04-15T03:36:30;100733.71;;;7.63;60.74
59545;BME280;45368;55.002;-1.592;2023-04-15T03:38:58;100735.91;;;7.40;61.08
59545;BME280;45368;55.002;-1.592;2023-04-15T03:41:25;100739.84;;;7.88;60.43
59545;BME280;45368;55.002;-1.592;2023-04-15T03:43:51;100744.64;;;7.81;60.21
59545;BME280;45368;55.002;-1.592;2023-04-15T03:46:18;100749.94;;;8.24;58.39
59545;BME280;45368;55.002;-1.592;2023-04-15T03:48:46;100751.04;;;8.25;58.68
59545;BME280;45368;55.002;-1.592;2023-04-15T03:51:13;100758.59;;;8.07;58.85
59545;BME280;45368;55.002;-1.592;2023-04-15T03:53:45;100766.23;;;8.65;57.88
59545;BME280;45368;55.002;-1.592;2023-04-15T03:56:12;100771.38;;;7.91;58.53
59545;BME280;45368;55.002;-1.592;2023-04-15T03:58:39;100774.63;;;7.87;59.55
59545;BME280;45368;55.002;-1.592;2023-04-15T04:01:06;100782.54;;;7.76;60.22
59545;BME280;45368;55.002;-1.592;2023-04-15T04:03:34;100785.49;;;7.74;60.14
59545;BME280;45368;55.002;-1.592;2023-04-15T04:06:01;100786.42;;;8.80;58.16
59545;BME280;45368;55.002;-1.592;2023-04-15T04:08:28;100786.09;;;9.16;57.02
59545;BME280;45368;55.002;-1.592;2023-04-15T04:10:55;100790.88;;;9.35;56.65
59545;BME280;45368;55.002;-1.592;2023-04-15T04:13:22;100796.24;;;9.43;56.46
59545;BME280;45368;55.002;-1.592;2023-04-15T04:15:49;100802.33;;;8.93;57.50
59545;BME280;45368;55.002;-1.592;2023-04-15T04:18:16;100802.91;;;9.48;56.14
59545;BME280;45368;55.002;-1.592;2023-04-15T04:20:43;100805.48;;;8.52;58.00
59545;BME280;45368;55.002;-1.592;2023-04-15T04:23:11;100808.81;;;8.65;57.37
59545;BME280;45368;55.002;-1.592;2023-04-15T04:25:39;100808.36;;;9.43;55.88
59545;BME280;45368;55.002;-1.592;2023-04-15T04:28:07;100811.07;;;9.82;55.18
59545;BME280;45368;55.002;-1.592;2023-04-15T04:30:35;100810.33;;;10.57;54.49
59545;BME280;45368;55.002;-1.592;2023-04-15T04:33:02;100818.04;;;10.19;54.80
59545;BME280;45368;55.002;-1.592;2023-04-15T04:35:28;100820.45;;;9.68;54.78
59545;BME280;45368;55.002;-1.592;2023-04-15T04:37:55;100820.54;;;9.56;55.86
59545;BME280;45368;55.002;-1.592;2023-04-15T04:40:22;100825.05;;;9.91;54.90
59545;BME280;45368;55.002;-1.592;2023-04-15T04:42:49;100830.97;;;9.56;55.01
59545;BME280;45368;55.002;-1.592;2023-04-15T04:45:16;100836.80;;;9.96;54.71
59545;BME280;45368;55.002;-1.592;2023-04-15T04:47:44;100833.91;;;10.51;53.67
59545;BME280;45368;55.002;-1.592;2023-04-15T04:50:12;100838.69;;;10.53;53.16
59545;BME280;45368;55.002;-1.592;2023-04-15T04:52:39;100849.93;;;10.43;53.53
59545;BME280;45368;55.002;-1.592;2023-04-15T04:55:06;100858.04;;;10.07;53.74
59545;BME280;45368;55.002;-1.592;2023-04-15T04:57:33;100866.26;;;10.41;53.62
59545;BME280;45368;55.002;-1.592;2023-04-15T05:00:00;100873.97;;;9.82;54.55
59545;BME280;45368;55.002;-1.592;2023-04-15T05:02:28;100881.02;;;10.52;53.68
59545;BME280;45368;55.002;-1.592;2023-04-15T05:04:55;100885.32;;;10.44;53.69
59545;BME280;45368;55.002;-1.592;2023-04-15T05:07:22;100887.63;;;10.11;54.08
59545;BME280;45368;55.002;-1.592;2023-04-15T05:09:49;100891.98;;;9.58;55.22
59545;BME280;45368;55.002;-1.592;2023-04-15T05:12:16;100894.55;;;10.27;54.21
59545;BME280;45368;55.002;-1.592;2023-04-15T05:14:43;100892.26;;;10.51;53.86
59545;BME280;45368;55.002;-1.592;2023-04-15T05:17:11;100894.75;;;10.15;53.97
59545;BME280;45368;55.002;-1.592;2023-04-15T05:19:39;100896.23;;;10.44;53.74
59545;BME280;45368;55.002;-1.592;2023-04-15T05:22:07;100899.36;;;10.64;53.23
59545;BME280;45368;55.002;-1.592;2023-04-15T05:24:34;100901.37;;;9.36;55.49
59545;BME280;45368;55.002;-1.592;2023-04-15T05:27:01;100904.70;;;8.75;56.22
59545;BME280;45368;55.002;-1.592;2023-04-15T05:29:28;100911.01;;;8.18;58.71
59545;BME280;45368;55.002;-1.592;2023-04-15T05:31:56;100911.98;;;9.30;56.95
59545;BME280;45368;55.002;-1.592;2023-04-15T05:34:23;100918.38;;;9.74;55.71
59545;BME280;45368;55.002;-1.592;2023-04-15T05:36:51;100918.92;;;8.56;58.13
59545;BME280;45368;55.002;-1.592;2023-04-15T05:39:18;100917.61;;;9.07;56.97
59545;BME280;45368;55.002;-1.592;2023-04-15T05:41:45;100914.57;;;8.90;57.61
59545;BME280;45368;55.002;-1.592;2023-04-15T05:44:12;100920.56;;;7.32;61.59
59545;BME280;45368;55.002;-1.592;2023-04-15T05:46:40;100930.09;;;7.31;62.05
59545;BME280;45368;55.002;-1.592;2023-04-15T05:49:07;100935.29;;;8.07;59.29
59545;BME280;45368;55.002;-1.592;2023-04-15T05:51:34;100942.13;;;8.31;59.18
59545;BME280;45368;55.002;-1.592;2023-04-15T05:54:01;100943.66;;;8.64;58.36
59545;BME280;45368;55.002;-1.592;2023-04-15T05:56:29;100951.17;;;8.37;58.36
59545;BME280;45368;55.002;-1.592;2023-04-15T05:58:56;100951.97;;;8.03;59.07
59545;BME280;45368;55.002;-1.592;2023-04-15T06:01:23;100959.38;;;8.48;58.30
59545;BME280;45368;55.002;-1.592;2023-04-15T06:03:50;100967.02;;;7.73;60.05
59545;BME280;45368;55.002;-1.592;2023-04-15T06:06:18;100972.78;;;7.57;61.21
59545;BME280;45368;55.002;-1.592;2023-04-15T06:08:45;100978.88;;;7.87;60.51
59545;BME280;45368;55.002;-1.592;2023-04-15T06:11:13;100991.14;;;7.30;61.88
59545;BME280;45368;55.002;-1.592;2023-04-15T06:13:40;101002.30;;;7.09;63.15
59545;BME280;45368;55.002;-1.592;2023-04-15T06:16:07;101001.39;;;7.55;62.01
59545;BME280;45368;55.002;-1.592;2023-04-15T06:18:34;101003.63;;;8.29;60.00
59545;BME280;45368;55.002;-1.592;2023-04-15T06:21:01;101009.61;;;7.60;61.95
59545;BME280;45368;55.002;-1.592;2023-04-15T06:23:28;101013.94;;;8.23;60.66
59545;BME280;45368;55.002;-1.592;2023-04-15T06:25:55;101017.50;;;8.02;60.40
59545;BME280;45368;55.002;-1.592;2023-04-15T06:28:22;101018.99;;;8.01;60.59
59545;BME280;45368;55.002;-1.592;2023-04-15T06:30:49;101027.43;;;7.46;61.97
59545;BME280;45368;55.002;-1.592;2023-04-15T06:33:17;101029.24;;;7.86;61.79
59545;BME280;45368;55.002;-1.592;2023-04-15T06:35:43;101040.58;;;7.51;62.60
59545;BME280;45368;55.002;-1.592;2023-04-15T06:38:11;101040.72;;;8.54;61.07
59545;BME280;45368;55.002;-1.592;2023-04-15T06:40:38;101034.18;;;9.31;58.88
59545;BME280;45368;55.002;-1.592;2023-04-15T06:43:05;101033.57;;;10.16;56.89
59545;BME280;45368;55.002;-1.592;2023-04-15T06:45:33;101036.55;;;9.41;57.40
59545;BME280;45368;55.002;-1.592;2023-04-15T06:48:00;101042.92;;;9.58;56.56
59545;BME280;45368;55.002;-1.592;2023-04-15T06:50:27;101046.74;;;9.61;56.44
59545;BME280;45368;55.002;-1.592;2023-04-15T06:52:55;101049.24;;;9.85;55.97
59545;BME280;45368;55.002;-1.592;2023-04-15T06:55:22;101054.62;;;9.49;56.47
59545;BME280;45368;55.002;-1.592;2023-04-15T06:57:49;101054.13;;;10.22;55.53
59545;BME280;45368;55.002;-1.592;2023-04-15T07:00:17;101057.89;;;10.23;55.71
59545;BME280;45368;55.002;-1.592;2023-04-15T07:02:44;101064.07;;;9.69;56.49
59545;BME280;45368;55.002;-1.592;2023-04-15T07:05:12;101070.94;;;10.39;56.25
59545;BME280;45368;55.002;-1.592;2023-04-15T07:07:40;101073.53;;;10.49;55.59
59545;BME280;45368;55.002;-1.592;2023-04-15T07:10:08;101077.01;;;10.26;56.32
59545;BME280;45368;55.002;-1.592;2023-04-15T07:12:35;101081.20;;;9.97;57.02
59545;BME280;45368;55.002;-1.592;2023-04-15T07:15:02;101090.95;;;8.80;60.40
59545;BME280;45368;55.002;-1.592;2023-04-15T07:17:30;101097.19;;;8.97;60.51
59545;BME280;45368;55.002;-1.592;2023-04-15T07:19:57;101094.59;;;9.86;58.32
59545;BME280;45368;55.002;-1.592;2023-04-15T07:22:24;101105.53;;;8.55;61.35
59545;BME280;45368;55.002;-1.592;2023-04-15T07:24:51;101099.71;;;10.01;59.10
59545;BME280;45368;55.002;-1.592;2023-04-15T07:27:18;101112.65;;;8.25;63.06
59545;BME280;45368;55.002;-1.592;2023-04-15T07:29:46;101111.06;;;8.74;62.52
59545;BME280;45368;55.002;-1.592;2023-04-15T07:32:13;101117.97;;;8.60;62.74
59545;BME280;45368;55.002;-1.592;2023-04-15T07:34:41;101113.35;;;9.46;60.24
59545;BME280;45368;55.002;-1.592;2023-04-15T07:37:08;101119.14;;;9.12;60.57
59545;BME280;45368;55.002;-1.592;2023-04-15T07:39:36;101126.34;;;8.61;61.74
59545;BME280;45368;55.002;-1.592;2023-04-15T07:42:03;101131.03;;;8.62;62.91
59545;BME280;45368;55.002;-1.592;2023-04-15T07:44:30;101129.05;;;8.63;63.88
59545;BME280;45368;55.002;-1.592;2023-04-15T07:46:58;101131.21;;;8.12;64.22
59545;BME280;45368;55.002;-1.592;2023-04-15T07:49:25;101132.36;;;9.13;61.97
59545;BME280;45368;55.002;-1.592;2023-04-15T07:51:52;101136.67;;;8.98;62.10
59545;BME280;45368;55.002;-1.592;2023-04-15T07:54:19;101150.18;;;8.95;61.92
59545;BME280;45368;55.002;-1.592;2023-04-15T07:56:46;101153.07;;;8.48;63.32
59545;BME280;45368;55.002;-1.592;2023-04-15T07:59:15;101156.51;;;8.88;62.41
59545;BME280;45368;55.002;-1.592;2023-04-15T08:01:42;101162.48;;;8.44;64.16
59545;BME280;45368;55.002;-1.592;2023-04-15T08:04:10;101161.49;;;8.69;62.41
59545;BME280;45368;55.002;-1.592;2023-04-15T08:06:37;101163.26;;;8.51;63.14
59545;BME280;45368;55.002;-1.592;2023-04-15T08:09:04;101161.14;;;9.14;60.99
59545;BME280;45368;55.002;-1.592;2023-04-15T08:11:32;101165.27;;;8.92;61.63
59545;BME280;45368;55.002;-1.592;2023-04-15T08:13:59;101168.65;;;8.92;61.85
59545;BME280;45368;55.002;-1.592;2023-04-15T08:16:27;101183.35;;;7.95;63.21
59545;BME280;45368;55.002;-1.592;2023-04-15T08:18:55;101183.42;;;9.09;61.01
59545;BME280;45368;55.002;-1.592;2023-04-15T08:21:23;101191.37;;;8.13;62.56
59545;BME280;45368;55.002;-1.592;2023-04-15T08:23:52;101192.03;;;7.98;64.33
59545;BME280;45368;55.002;-1.592;2023-04-15T08:26:20;101189.50;;;9.25;61.23
59545;BME280;45368;55.002;-1.592;2023-04-15T08:28:48;101194.81;;;8.71;60.80
59545;BME280;45368;55.002;-1.592;2023-04-15T08:31:16;101195.65;;;9.16;60.42
59545;BME280;45368;55.002;-1.592;2023-04-15T08:33:43;101199.79;;;8.96;60.88
59545;BME280;45368;55.002;-1.592;2023-04-15T08:36:11;101203.07;;;8.66;60.86
59545;BME280;45368;55.002;-1.592;2023-04-15T08:38:39;101209.82;;;7.85;62.80
59545;BME280;45368;55.002;-1.592;2023-04-15T08:41:11;101212.40;;;8.27;61.82
59545;BME280;45368;55.002;-1.592;2023-04-15T08:43:45;101221.62;;;8.33;62.38
59545;BME280;45368;55.002;-1.592;2023-04-15T08:46:14;101224.66;;;8.97;60.62
59545;BME280;45368;55.002;-1.592;2023-04-15T08:48:42;101235.73;;;8.57;60.96
59545;BME280;45368;55.002;-1.592;2023-04-15T08:51:10;101244.15;;;7.98;61.27
59545;BME280;45368;55.002;-1.592;2023-04-15T08:53:37;101237.26;;;9.27;59.27
59545;BME280;45368;55.002;-1.592;2023-04-15T08:56:07;101245.12;;;8.63;60.19
59545;BME280;45368;55.002;-1.592;2023-04-15T08:58:35;101242.55;;;9.26;60.15
59545;BME280;45368;55.002;-1.592;2023-04-15T09:01:03;101247.42;;;9.45;58.55
59545;BME280;45368;55.002;-1.592;2023-04-15T09:03:31;101252.63;;;8.56;60.66
59545;BME280;45368;55.002;-1.592;2023-04-15T09:05:58;101247.46;;;8.81;59.92
59545;BME280;45368;55.002;-1.592;2023-04-15T09:08:26;101249.84;;;10.22;57.50
59545;BME280;45368;55.002;-1.592;2023-04-15T09:10:53;101258.28;;;9.94;57.87
59545;BME280;45368;55.002;-1.592;2023-04-15T09:13:20;101255.24;;;10.71;56.55
59545;BME280;45368;55.002;-1.592;2023-04-15T09:15:47;101257.02;;;10.07;56.67
59545;BME280;45368;55.002;-1.592;2023-04-15T09:18:27;101265.91;;;9.76;58.35
59545;BME280;45368;55.002;-1.592;2023-04-15T09:20:55;101274.39;;;9.38;59.44
59545;BME280;45368;55.002;-1.592;2023-04-15T09:23:23;101273.57;;;10.19;57.63
59545;BME280;45368;55.002;-1.592;2023-04-15T09:25:50;101281.67;;;9.96;57.99
59545;BME280;45368;55.002;-1.592;2023-04-15T09:28:23;101285.63;;;8.82;60.18
59545;BME280;45368;55.002;-1.592;2023-04-15T09:30:54;101283.72;;;9.55;59.07
59545;BME280;45368;55.002;-1.592;2023-04-15T09:33:22;101279.25;;;10.60;57.21
59545;BME280;45368;55.002;-1.592;2023-04-15T09:35:59;101279.32;;;12.38;54.32
59545;BME280;45368;55.002;-1.592;2023-04-15T09:38:27;101282.90;;;11.86;54.39
59545;BME280;45368;55.002;-1.592;2023-04-15T09:40:54;101284.01;;;12.16;53.64
59545;BME280;45368;55.002;-1.592;2023-04-15T09:43:21;101290.75;;;10.74;55.31
59545;BME280;45368;55.002;-1.592;2023-04-15T09:45:50;101301.91;;;10.38;56.52
59545;BME280;45368;55.002;-1.592;2023-04-15T09:48:20;101300.96;;;10.83;55.02
59545;BME280;45368;55.002;-1.592;2023-04-15T09:50:48;101299.78;;;11.78;53.62
59545;BME280;45368;55.002;-1.592;2023-04-15T09:53:17;101307.60;;;11.05;55.42
59545;BME280;45368;55.002;-1.592;2023-04-15T09:55:48;101323.85;;;10.09;55.58
59545;BME280;45368;55.002;-1.592;2023-04-15T09:58:19;101326.27;;;11.27;54.54
59545;BME280;45368;55.002;-1.592;2023-04-15T10:00:48;101323.53;;;11.16;54.28
59545;BME280;45368;55.002;-1.592;2023-04-15T10:03:19;101326.10;;;10.42;54.79
59545;BME280;45368;55.002;-1.592;2023-04-15T10:05:48;101327.73;;;10.95;54.41
59545;BME280;45368;55.002;-1.592;2023-04-15T10:08:17;101328.36;;;10.79;55.43
59545;BME280;45368;55.002;-1.592;2023-04-15T10:10:46;101334.47;;;11.42;54.33
59545;BME280;45368;55.002;-1.592;2023-04-15T10:13:16;101337.89;;;11.71;52.97
59545;BME280;45368;55.002;-1.592;2023-04-15T10:15:45;101339.83;;;12.22;51.36
59545;BME280;45368;55.002;-1.592;2023-04-15T10:18:19;101342.22;;;12.32;50.78
59545;BME280;45368;55.002;-1.592;2023-04-15T10:20:47;101351.31;;;10.14;54.95
59545;BME280;45368;55.002;-1.592;2023-04-15T10:23:15;101351.67;;;11.04;54.88
59545;BME280;45368;55.002;-1.592;2023-04-15T10:25:42;101350.38;;;11.43;53.74
59545;BME280;45368;55.002;-1.592;2023-04-15T10:28:11;101355.71;;;10.66;54.65
59545;BME280;45368;55.002;-1.592;2023-04-15T10:30:39;101351.69;;;10.71;54.77
59545;BME280;45368;55.002;-1.592;2023-04-15T10:33:08;101349.45;;;11.10;53.87
59545;BME280;45368;55.002;-1.592;2023-04-15T10:35:36;101345.37;;;11.44;52.28
59545;BME280;45368;55.002;-1.592;2023-04-15T10:38:30;101343.13;;;11.73;51.57
59545;BME280;45368;55.002;-1.592;2023-04-15T10:41:12;101352.06;;;11.60;52.26
59545;BME280;45368;55.002;-1.592;2023-04-15T10:43:44;101355.38;;;12.04;51.64
59545;BME280;45368;55.002;-1.592;2023-04-15T10:46:12;101363.04;;;11.55;53.21
59545;BME280;45368;55.002;-1.592;2023-04-15T10:48:46;101370.81;;;10.97;53.38
59545;BME280;45368;55.002;-1.592;2023-04-15T10:51:14;101367.34;;;13.46;48.33
59545;BME280;45368;55.002;-1.592;2023-04-15T10:53:41;101369.26;;;13.59;47.67
59545;BME280;45368;55.002;-1.592;2023-04-15T10:56:09;101368.07;;;13.83;47.08
59545;BME280;45368;55.002;-1.592;2023-04-15T10:58:44;101369.76;;;13.86;45.47
59545;BME280;45368;55.002;-1.592;2023-04-15T11:01:12;101366.03;;;14.11;45.07
59545;BME280;45368;55.002;-1.592;2023-04-15T11:03:42;101367.21;;;14.68;44.21
59545;BME280;45368;55.002;-1.592;2023-04-15T11:06:09;101370.13;;;14.51;43.56
59545;BME280;45368;55.002;-1.592;2023-04-15T11:09:11;101369.08;;;15.59;40.83
59545;BME280;45368;55.002;-1.592;2023-04-15T11:12:06;101363.79;;;16.16;39.22
59545;BME280;45368;55.002;-1.592;2023-04-15T11:14:36;101359.61;;;18.97;36.12
59545;BME280;45368;55.002;-1.592;2023-04-15T11:17:05;101353.65;;;20.49;33.87
59545;BME280;45368;55.002;-1.592;2023-04-15T11:19:36;101356.59;;;19.22;33.85
59545;BME280;45368;55.002;-1.592;2023-04-15T11:22:08;101360.35;;;17.56;36.30
59545;BME280;45368;55.002;-1.592;2023-04-15T11:24:36;101364.84;;;16.12;39.74
59545;BME280;45368;55.002;-1.592;2023-04-15T11:27:20;101370.14;;;15.12;40.59
59545;BME280;45368;55.002;-1.592;2023-04-15T11:29:47;101379.34;;;14.58;42.61
59545;BME280;45368;55.002;-1.592;2023-04-15T11:32:15;101369.24;;;15.13;41.98
59545;BME280;45368;55.002;-1.592;2023-04-15T11:34:44;101364.54;;;15.74;41.18
59545;BME280;45368;55.002;-1.592;2023-04-15T11:37:11;101360.09;;;16.53;39.39
59545;BME280;45368;55.002;-1.592;2023-04-15T11:39:39;101356.41;;;18.81;35.53
59545;BME280;45368;55.002;-1.592;2023-04-15T11:42:16;101354.40;;;18.79;35.44
59545;BME280;45368;55.002;-1.592;2023-04-15T11:44:43;101345.05;;;21.22;30.87
59545;BME280;45368;55.002;-1.592;2023-04-15T11:47:22;101343.85;;;21.80;30.34
59545;BME280;45368;55.002;-1.592;2023-04-15T11:49:49;101351.23;;;20.10;32.49
59545;BME280;45368;55.002;-1.592;2023-04-15T11:52:17;101367.17;;;16.86;35.19
59545;BME280;45368;55.002;-1.592;2023-04-15T11:54:44;101372.17;;;15.08;38.68
59545;BME280;45368;55.002;-1.592;2023-04-15T11:57:12;101378.97;;;14.13;40.51
59545;BME280;45368;55.002;-1.592;2023-04-15T11:59:41;101386.20;;;13.96;42.29
59545;BME280;45368;55.002;-1.592;2023-04-15T12:02:11;101389.58;;;13.42;41.58
59545;BME280;45368;55.002;-1.592;2023-04-15T12:04:38;101396.46;;;13.71;44.45
59545;BME280;45368;55.002;-1.592;2023-04-15T12:07:06;101393.07;;;13.71;43.59
59545;BME280;45368;55.002;-1.592;2023-04-15T12:09:37;101397.54;;;13.74;42.99
59545;BME280;45368;55.002;-1.592;2023-04-15T12:12:04;101404.62;;;13.44;43.83
59545;BME280;45368;55.002;-1.592;2023-04-15T12:14:32;101410.34;;;12.70;45.40
59545;BME280;45368;55.002;-1.592;2023-04-15T12:17:00;101408.52;;;13.87;44.00
59545;BME280;45368;55.002;-1.592;2023-04-15T12:19:29;101410.09;;;13.59;40.06
59545;BME280;45368;55.002;-1.592;2023-04-15T12:21:58;101413.78;;;12.63;44.66
59545;BME280;45368;55.002;-1.592;2023-04-15T12:24:25;101418.92;;;12.99;41.74
59545;BME280;45368;55.002;-1.592;2023-04-15T12:26:54;101420.70;;;13.19;42.44
59545;BME280;45368;55.002;-1.592;2023-04-15T12:29:26;101422.73;;;12.94;42.09
59545;BME280;45368;55.002;-1.592;2023-04-15T12:31:55;101423.90;;;12.23;42.02
59545;BME280;45368;55.002;-1.592;2023-04-15T12:34:27;101426.39;;;11.93;43.75
59545;BME280;45368;55.002;-1.592;2023-04-15T12:36:54;101430.56;;;10.86;42.50
59545;BME280;45368;55.002;-1.592;2023-04-15T12:39:22;101425.15;;;12.12;42.84
59545;BME280;45368;55.002;-1.592;2023-04-15T12:41:52;101431.69;;;11.97;42.59
59545;BME280;45368;55.002;-1.592;2023-04-15T12:44:21;101434.14;;;11.58;42.27
59545;BME280;45368;55.002;-1.592;2023-04-15T12:46:49;101432.96;;;11.42;43.77
59545;BME280;45368;55.002;-1.592;2023-04-15T12:49:16;101434.62;;;11.48;43.05